sensor_id;sensor_type;location;lat;lon;timestamp;pressure;altitude;pressure_sealevel;temperature;humidity
31911;BME280;18457;52.432;16.914;2022-07-23T00:01:22;100577.79;;;21.57;68.13
31911;BME280;18457;52.432;16.914;2022-07-23T00:03:57;100579.25;;;21.33;69.06
31911;BME280;18457;52.432;16.914;2022-07-23T00:06:29;100585.22;;;21.51;68.42
31911;BME280;18457;52.432;16.914;2022-07-23T00:09:02;100583.61;;;21.53;68.17
31911;BME280;18457;52.432;16.914;2022-07-23T00:11:34;100586.98;;;21.30;69.20
31911;BME280;18457;52.432;16.914;2022-07-23T00:14:06;100586.81;;;21.35;68.77
31911;BME280;18457;52.432;16.914;2022-07-23T00:16:38;100589.84;;;21.34;68.85
31911;BME280;18457;52.432;16.914;2022-07-23T00:19:10;100587.21;;;21.24;69.31
31911;BME280;18457;52.432;16.914;2022-07-23T00:21:42;100586.85;;;21.18;69.58
31911;BME280;18457;52.432;16.914;2022-07-23T00:24:13;100583.10;;;21.33;69.17
31911;BME280;18457;52.432;16.914;2022-07-23T00:26:45;100578.25;;;21.23;69.14
31911;BME280;18457;52.432;16.914;2022-07-23T00:29:17;100582.67;;;21.00;70.21
31911;BME280;18457;52.432;16.914;2022-07-23T00:31:49;100577.31;;;20.95;70.32
31911;BME280;18457;52.432;16.914;2022-07-23T00:34:21;100575.06;;;21.07;69.81
31911;BME280;18457;52.432;16.914;2022-07-23T00:36:53;100583.31;;;21.22;69.68
31911;BME280;18457;52.432;16.914;2022-07-23T00:39:25;100579.11;;;21.13;69.63
31911;BME280;18457;52.432;16.914;2022-07-23T00:41:57;100577.52;;;21.12;69.94
31911;BME280;18457;52.432;16.914;2022-07-23T00:44:29;100579.32;;;21.12;70.04
31911;BME280;18457;52.432;16.914;2022-07-23T00:47:01;100578.69;;;21.05;70.26
31911;BME280;18457;52.432;16.914;2022-07-23T00:49:33;100574.61;;;21.03;70.29
31911;BME280;18457;52.432;16.914;2022-07-23T00:52:05;100573.82;;;21.04;70.38
31911;BME280;18457;52.432;16.914;2022-07-23T00:54:38;100571.27;;;21.12;70.35
31911;BME280;18457;52.432;16.914;2022-07-23T00:57:10;100572.77;;;21.08;70.09
31911;BME280;18457;52.432;16.914;2022-07-23T00:59:42;100566.00;;;20.93;71.13
31911;BME280;18457;52.432;16.914;2022-07-23T01:02:15;100563.98;;;20.99;70.68
31911;BME280;18457;52.432;16.914;2022-07-23T01:04:47;100562.27;;;21.03;70.75
31911;BME280;18457;52.432;16.914;2022-07-23T01:07:19;100557.43;;;21.07;70.24
31911;BME280;18457;52.432;16.914;2022-07-23T01:09:53;100561.35;;;21.31;69.67
31911;BME280;18457;52.432;16.914;2022-07-23T01:12:25;100564.37;;;21.41;69.02
31911;BME280;18457;52.432;16.914;2022-07-23T01:14:59;100563.02;;;21.31;69.82
31911;BME280;18457;52.432;16.914;2022-07-23T01:17:32;100559.87;;;21.18;70.17
31911;BME280;18457;52.432;16.914;2022-07-23T01:20:07;100557.98;;;21.24;69.81
31911;BME280;18457;52.432;16.914;2022-07-23T01:22:39;100557.34;;;21.06;70.45
31911;BME280;18457;52.432;16.914;2022-07-23T01:25:11;100560.01;;;20.87;71.52
31911;BME280;18457;52.432;16.914;2022-07-23T01:27:47;100556.65;;;20.76;71.92
31911;BME280;18457;52.432;16.914;2022-07-23T01:30:19;100553.23;;;20.81;71.80
31911;BME280;18457;52.432;16.914;2022-07-23T01:32:51;100551.91;;;20.96;71.24
31911;BME280;18457;52.432;16.914;2022-07-23T01:35:23;100551.60;;;20.92;71.40
31911;BME280;18457;52.432;16.914;2022-07-23T01:37:58;100553.76;;;20.84;71.72
31911;BME280;18457;52.432;16.914;2022-07-23T01:40:31;100551.34;;;20.79;72.16
31911;BME280;18457;52.432;16.914;2022-07-23T01:43:03;100546.92;;;20.73;72.36
31911;BME280;18457;52.432;16.914;2022-07-23T01:45:37;100544.55;;;20.64;72.58
31911;BME280;18457;52.432;16.914;2022-07-23T01:48:09;100544.83;;;20.74;72.16
31911;BME280;18457;52.432;16.914;2022-07-23T01:50:48;100540.48;;;20.70;72.61
31911;BME280;18457;52.432;16.914;2022-07-23T01:53:30;100530.52;;;20.43;73.48
31911;BME280;18457;52.432;16.914;2022-07-23T01:56:02;100530.30;;;20.54;72.95
31911;BME280;18457;52.432;16.914;2022-07-23T01:58:34;100531.02;;;20.58;72.78
31911;BME280;18457;52.432;16.914;2022-07-23T02:01:06;100530.86;;;20.49;73.29
31911;BME280;18457;52.432;16.914;2022-07-23T02:03:38;100533.28;;;20.65;72.58
31911;BME280;18457;52.432;16.914;2022-07-23T02:06:10;100531.89;;;20.78;71.94
31911;BME280;18457;52.432;16.914;2022-07-23T02:08:42;100534.30;;;20.70;72.34
31911;BME280;18457;52.432;16.914;2022-07-23T02:11:16;100536.67;;;20.58;72.76
31911;BME280;18457;52.432;16.914;2022-07-23T02:13:49;100537.04;;;20.64;72.67
31911;BME280;18457;52.432;16.914;2022-07-23T02:16:21;100534.70;;;20.81;72.00
31911;BME280;18457;52.432;16.914;2022-07-23T02:18:53;100538.58;;;20.83;71.75
31911;BME280;18457;52.432;16.914;2022-07-23T02:21:25;100548.19;;;20.82;71.63
31911;BME280;18457;52.432;16.914;2022-07-23T02:23:56;100548.95;;;20.64;72.56
31911;BME280;18457;52.432;16.914;2022-07-23T02:26:28;100547.05;;;20.62;72.55
31911;BME280;18457;52.432;16.914;2022-07-23T02:29:04;100551.04;;;20.72;72.60
31911;BME280;18457;52.432;16.914;2022-07-23T02:31:36;100551.59;;;20.86;71.62
31911;BME280;18457;52.432;16.914;2022-07-23T02:34:09;100545.03;;;20.77;72.31
31911;BME280;18457;52.432;16.914;2022-07-23T02:36:42;100544.17;;;20.87;72.25
31911;BME280;18457;52.432;16.914;2022-07-23T02:39:14;100540.66;;;20.96;71.93
31911;BME280;18457;52.432;16.914;2022-07-23T02:41:46;100544.61;;;20.86;71.85
31911;BME280;18457;52.432;16.914;2022-07-23T02:44:19;100535.15;;;20.57;73.15
31911;BME280;18457;52.432;16.914;2022-07-23T02:46:53;100524.09;;;20.71;72.66
31911;BME280;18457;52.432;16.914;2022-07-23T02:49:25;100521.13;;;20.86;71.99
31911;BME280;18457;52.432;16.914;2022-07-23T02:51:56;100519.73;;;20.99;71.70
31911;BME280;18457;52.432;16.914;2022-07-23T02:54:29;100511.21;;;20.91;72.07
31911;BME280;18457;52.432;16.914;2022-07-23T02:57:01;100511.48;;;20.87;72.37
31911;BME280;18457;52.432;16.914;2022-07-23T02:59:33;100515.77;;;20.80;72.80
31911;BME280;18457;52.432;16.914;2022-07-23T03:02:04;100515.96;;;20.75;73.13
31911;BME280;18457;52.432;16.914;2022-07-23T03:04:36;100521.74;;;20.59;73.36
31911;BME280;18457;52.432;16.914;2022-07-23T03:07:08;100527.01;;;20.37;74.17
31911;BME280;18457;52.432;16.914;2022-07-23T03:09:40;100523.98;;;20.50;73.91
31911;BME280;18457;52.432;16.914;2022-07-23T03:12:13;100521.16;;;20.85;72.49
31911;BME280;18457;52.432;16.914;2022-07-23T03:14:45;100518.27;;;20.90;72.56
31911;BME280;18457;52.432;16.914;2022-07-23T03:17:17;100524.34;;;20.70;73.22
31911;BME280;18457;52.432;16.914;2022-07-23T03:19:50;100526.66;;;20.31;74.89
31911;BME280;18457;52.432;16.914;2022-07-23T03:22:21;100527.88;;;20.41;75.06
31911;BME280;18457;52.432;16.914;2022-07-23T03:24:53;100529.91;;;20.64;73.95
31911;BME280;18457;52.432;16.914;2022-07-23T03:27:29;100530.27;;;20.81;72.96
31911;BME280;18457;52.432;16.914;2022-07-23T03:30:01;100527.60;;;20.77;73.34
31911;BME280;18457;52.432;16.914;2022-07-23T03:32:33;100523.86;;;20.69;73.62
31911;BME280;18457;52.432;16.914;2022-07-23T03:35:05;100524.50;;;20.79;73.33
31911;BME280;18457;52.432;16.914;2022-07-23T03:37:40;100524.01;;;20.87;72.59
31911;BME280;18457;52.432;16.914;2022-07-23T03:40:15;100528.47;;;20.83;73.18
31911;BME280;18457;52.432;16.914;2022-07-23T03:42:48;100520.13;;;20.84;73.19
31911;BME280;18457;52.432;16.914;2022-07-23T03:45:20;100518.21;;;20.88;73.18
31911;BME280;18457;52.432;16.914;2022-07-23T03:47:52;100512.86;;;20.91;72.72
31911;BME280;18457;52.432;16.914;2022-07-23T03:50:24;100522.89;;;20.95;72.87
31911;BME280;18457;52.432;16.914;2022-07-23T03:52:56;100520.89;;;20.78;73.43
31911;BME280;18457;52.432;16.914;2022-07-23T03:55:28;100520.13;;;20.75;73.70
31911;BME280;18457;52.432;16.914;2022-07-23T03:58:00;100526.38;;;20.61;74.34
31911;BME280;18457;52.432;16.914;2022-07-23T04:00:32;100529.09;;;20.45;75.05
31911;BME280;18457;52.432;16.914;2022-07-23T04:03:04;100529.06;;;20.71;73.73
31911;BME280;18457;52.432;16.914;2022-07-23T04:05:36;100524.66;;;20.80;73.47
31911;BME280;18457;52.432;16.914;2022-07-23T04:08:09;100525.11;;;20.78;73.29
31911;BME280;18457;52.432;16.914;2022-07-23T04:10:44;100521.98;;;20.58;74.51
31911;BME280;18457;52.432;16.914;2022-07-23T04:13:16;100520.94;;;20.55;74.85
31911;BME280;18457;52.432;16.914;2022-07-23T04:15:48;100527.23;;;20.51;74.83
31911;BME280;18457;52.432;16.914;2022-07-23T04:18:21;100526.52;;;20.45;75.24
31911;BME280;18457;52.432;16.914;2022-07-23T04:21:01;100521.84;;;20.61;74.58
31911;BME280;18457;52.432;16.914;2022-07-23T04:23:33;100527.02;;;20.83;73.93
31911;BME280;18457;52.432;16.914;2022-07-23T04:26:05;100525.80;;;20.84;73.62
31911;BME280;18457;52.432;16.914;2022-07-23T04:28:37;100523.62;;;20.76;73.88
31911;BME280;18457;52.432;16.914;2022-07-23T04:31:09;100528.13;;;20.66;74.49
31911;BME280;18457;52.432;16.914;2022-07-23T04:33:42;100523.64;;;20.86;73.87
31911;BME280;18457;52.432;16.914;2022-07-23T04:36:13;100522.92;;;21.04;72.91
31911;BME280;18457;52.432;16.914;2022-07-23T04:38:45;100522.17;;;21.04;73.05
31911;BME280;18457;52.432;16.914;2022-07-23T04:41:23;100517.56;;;21.21;72.11
31911;BME280;18457;52.432;16.914;2022-07-23T04:43:55;100513.24;;;21.28;71.87
31911;BME280;18457;52.432;16.914;2022-07-23T04:46:27;100508.14;;;21.30;72.05
31911;BME280;18457;52.432;16.914;2022-07-23T04:48:59;100510.20;;;21.21;72.37
31911;BME280;18457;52.432;16.914;2022-07-23T04:51:30;100503.64;;;21.10;72.92
31911;BME280;18457;52.432;16.914;2022-07-23T04:54:03;100497.16;;;21.23;72.38
31911;BME280;18457;52.432;16.914;2022-07-23T04:56:36;100491.04;;;21.35;71.99
31911;BME280;18457;52.432;16.914;2022-07-23T04:59:08;100493.93;;;21.52;71.35
31911;BME280;18457;52.432;16.914;2022-07-23T05:01:40;100492.23;;;21.60;71.31
31911;BME280;18457;52.432;16.914;2022-07-23T05:04:13;100486.60;;;21.73;71.17
31911;BME280;18457;52.432;16.914;2022-07-23T05:06:46;100482.20;;;21.73;71.62
31911;BME280;18457;52.432;16.914;2022-07-23T05:09:18;100476.36;;;21.97;71.60
31911;BME280;18457;52.432;16.914;2022-07-23T05:11:50;100479.10;;;22.10;71.41
31911;BME280;18457;52.432;16.914;2022-07-23T05:14:23;100476.01;;;22.04;71.71
31911;BME280;18457;52.432;16.914;2022-07-23T05:16:56;100476.91;;;22.22;71.39
31911;BME280;18457;52.432;16.914;2022-07-23T05:19:29;100471.66;;;22.34;71.13
31911;BME280;18457;52.432;16.914;2022-07-23T05:22:01;100468.54;;;22.41;70.59
31911;BME280;18457;52.432;16.914;2022-07-23T05:24:32;100463.16;;;22.47;70.25
31911;BME280;18457;52.432;16.914;2022-07-23T05:27:04;100459.52;;;22.49;69.88
31911;BME280;18457;52.432;16.914;2022-07-23T05:29:35;100462.11;;;22.51;69.80
31911;BME280;18457;52.432;16.914;2022-07-23T05:32:07;100466.30;;;22.57;70.24
31911;BME280;18457;52.432;16.914;2022-07-23T05:34:41;100460.02;;;22.60;70.57
31911;BME280;18457;52.432;16.914;2022-07-23T05:37:14;100453.24;;;22.70;69.90
31911;BME280;18457;52.432;16.914;2022-07-23T05:39:46;100457.07;;;22.72;69.63
31911;BME280;18457;52.432;16.914;2022-07-23T05:42:18;100448.70;;;22.74;69.32
31911;BME280;18457;52.432;16.914;2022-07-23T05:44:50;100444.83;;;22.79;69.47
31911;BME280;18457;52.432;16.914;2022-07-23T05:47:22;100438.45;;;22.80;69.53
31911;BME280;18457;52.432;16.914;2022-07-23T05:49:54;100439.79;;;22.80;69.28
31911;BME280;18457;52.432;16.914;2022-07-23T05:52:40;100441.99;;;22.87;69.19
31911;BME280;18457;52.432;16.914;2022-07-23T05:55:31;100443.88;;;22.84;69.41
31911;BME280;18457;52.432;16.914;2022-07-23T05:58:03;100438.80;;;23.00;69.64
31911;BME280;18457;52.432;16.914;2022-07-23T06:00:34;100437.27;;;23.08;69.58
31911;BME280;18457;52.432;16.914;2022-07-23T06:03:07;100438.75;;;23.15;68.73
31911;BME280;18457;52.432;16.914;2022-07-23T06:05:40;100426.69;;;23.18;68.22
31911;BME280;18457;52.432;16.914;2022-07-23T06:08:12;100422.75;;;23.24;68.62
31911;BME280;18457;52.432;16.914;2022-07-23T06:10:43;100420.47;;;23.25;69.19
31911;BME280;18457;52.432;16.914;2022-07-23T06:13:16;100417.52;;;23.45;70.07
31911;BME280;18457;52.432;16.914;2022-07-23T06:15:49;100416.27;;;23.44;68.17
31911;BME280;18457;52.432;16.914;2022-07-23T06:18:22;100418.73;;;23.48;68.11
31911;BME280;18457;52.432;16.914;2022-07-23T06:20:54;100418.77;;;23.60;68.41
31911;BME280;18457;52.432;16.914;2022-07-23T06:23:30;100418.65;;;23.61;67.95
31911;BME280;18457;52.432;16.914;2022-07-23T06:26:01;100418.77;;;23.60;67.73
31911;BME280;18457;52.432;16.914;2022-07-23T06:28:33;100420.34;;;23.63;67.69
31911;BME280;18457;52.432;16.914;2022-07-23T06:31:06;100420.65;;;23.59;67.00
31911;BME280;18457;52.432;16.914;2022-07-23T06:33:38;100418.60;;;23.78;67.24
31911;BME280;18457;52.432;16.914;2022-07-23T06:36:10;100414.79;;;23.84;66.56
31911;BME280;18457;52.432;16.914;2022-07-23T06:38:45;100406.48;;;23.91;66.47
31911;BME280;18457;52.432;16.914;2022-07-23T06:41:19;100412.05;;;23.91;65.03
31911;BME280;18457;52.432;16.914;2022-07-23T06:43:51;100421.59;;;24.01;66.01
31911;BME280;18457;52.432;16.914;2022-07-23T06:46:24;100423.09;;;24.10;66.67
31911;BME280;18457;52.432;16.914;2022-07-23T06:48:56;100426.14;;;24.36;66.45
31911;BME280;18457;52.432;16.914;2022-07-23T06:51:31;100420.63;;;24.51;65.92
31911;BME280;18457;52.432;16.914;2022-07-23T06:54:04;100419.29;;;24.50;64.09
31911;BME280;18457;52.432;16.914;2022-07-23T06:56:37;100410.58;;;24.50;64.70
31911;BME280;18457;52.432;16.914;2022-07-23T06:59:08;100413.27;;;24.55;63.96
31911;BME280;18457;52.432;16.914;2022-07-23T07:01:40;100419.13;;;24.61;63.23
31911;BME280;18457;52.432;16.914;2022-07-23T07:04:12;100415.61;;;24.70;62.68
31911;BME280;18457;52.432;16.914;2022-07-23T07:06:44;100424.55;;;24.84;62.53
31911;BME280;18457;52.432;16.914;2022-07-23T07:09:16;100416.16;;;24.83;61.06
31911;BME280;18457;52.432;16.914;2022-07-23T07:11:48;100414.95;;;24.93;61.32
31911;BME280;18457;52.432;16.914;2022-07-23T07:14:20;100415.39;;;25.03;61.47
31911;BME280;18457;52.432;16.914;2022-07-23T07:16:52;100414.37;;;25.27;61.96
31911;BME280;18457;52.432;16.914;2022-07-23T07:19:24;100407.77;;;25.28;59.88
31911;BME280;18457;52.432;16.914;2022-07-23T07:21:56;100407.91;;;25.31;59.53
31911;BME280;18457;52.432;16.914;2022-07-23T07:24:28;100408.96;;;25.31;59.57
31911;BME280;18457;52.432;16.914;2022-07-23T07:27:06;100410.92;;;25.45;60.89
31911;BME280;18457;52.432;16.914;2022-07-23T07:29:38;100418.69;;;25.37;61.61
31911;BME280;18457;52.432;16.914;2022-07-23T07:32:10;100427.90;;;25.32;61.78
31911;BME280;18457;52.432;16.914;2022-07-23T07:34:41;100432.72;;;25.35;61.03
31911;BME280;18457;52.432;16.914;2022-07-23T07:37:13;100430.13;;;25.20;60.93
31911;BME280;18457;52.432;16.914;2022-07-23T07:39:45;100430.16;;;25.32;61.09
31911;BME280;18457;52.432;16.914;2022-07-23T07:42:17;100428.67;;;25.34;62.65
31911;BME280;18457;52.432;16.914;2022-07-23T07:44:48;100438.02;;;25.33;61.49
31911;BME280;18457;52.432;16.914;2022-07-23T07:47:20;100434.23;;;25.28;59.63
31911;BME280;18457;52.432;16.914;2022-07-23T07:49:52;100438.43;;;25.26;59.90
31911;BME280;18457;52.432;16.914;2022-07-23T07:52:24;100439.07;;;25.23;60.61
31911;BME280;18457;52.432;16.914;2022-07-23T07:54:56;100442.36;;;25.10;59.23
31911;BME280;18457;52.432;16.914;2022-07-23T07:57:29;100444.69;;;25.18;58.65
31911;BME280;18457;52.432;16.914;2022-07-23T08:00:03;100436.92;;;25.11;59.30
31911;BME280;18457;52.432;16.914;2022-07-23T08:02:46;100436.56;;;25.22;59.78
31911;BME280;18457;52.432;16.914;2022-07-23T08:05:22;100439.16;;;25.26;60.58
31911;BME280;18457;52.432;16.914;2022-07-23T08:07:58;100448.91;;;25.16;58.62
31911;BME280;18457;52.432;16.914;2022-07-23T08:10:30;100464.38;;;24.97;58.39
31911;BME280;18457;52.432;16.914;2022-07-23T08:13:02;100481.70;;;24.91;59.27
31911;BME280;18457;52.432;16.914;2022-07-23T08:15:35;100494.04;;;24.80;59.30
31911;BME280;18457;52.432;16.914;2022-07-23T08:18:07;100511.73;;;24.72;60.08
31911;BME280;18457;52.432;16.914;2022-07-23T08:20:39;100526.23;;;24.64;60.22
31911;BME280;18457;52.432;16.914;2022-07-23T08:23:11;100525.63;;;24.60;60.52
31911;BME280;18457;52.432;16.914;2022-07-23T08:25:43;100507.58;;;24.55;60.88
31911;BME280;18457;52.432;16.914;2022-07-23T08:28:16;100506.23;;;24.44;63.04
31911;BME280;18457;52.432;16.914;2022-07-23T08:30:46;100505.20;;;24.39;64.27
31911;BME280;18457;52.432;16.914;2022-07-23T08:33:19;100511.64;;;24.18;66.05
31911;BME280;18457;52.432;16.914;2022-07-23T08:36:04;100505.32;;;24.07;66.80
31911;BME280;18457;52.432;16.914;2022-07-23T08:38:36;100499.23;;;24.09;67.11
31911;BME280;18457;52.432;16.914;2022-07-23T08:41:08;100506.42;;;24.02;67.95
31911;BME280;18457;52.432;16.914;2022-07-23T08:43:41;100511.29;;;23.99;68.69
31911;BME280;18457;52.432;16.914;2022-07-23T08:46:15;100515.66;;;23.88;69.78
31911;BME280;18457;52.432;16.914;2022-07-23T08:48:49;100524.02;;;24.04;70.06
31911;BME280;18457;52.432;16.914;2022-07-23T08:51:23;100528.83;;;23.80;70.49
31911;BME280;18457;52.432;16.914;2022-07-23T08:53:58;100514.60;;;23.58;71.61
31911;BME280;18457;52.432;16.914;2022-07-23T08:56:31;100506.86;;;23.44;72.40
31911;BME280;18457;52.432;16.914;2022-07-23T08:59:04;100494.66;;;23.47;72.63
31911;BME280;18457;52.432;16.914;2022-07-23T09:01:35;100490.35;;;23.45;72.42
31911;BME280;18457;52.432;16.914;2022-07-23T09:04:07;100494.95;;;23.38;73.28
31911;BME280;18457;52.432;16.914;2022-07-23T09:06:41;100511.80;;;23.22;72.74
31911;BME280;18457;52.432;16.914;2022-07-23T09:09:20;100525.17;;;23.23;73.58
31911;BME280;18457;52.432;16.914;2022-07-23T09:12:06;100520.33;;;23.17;73.56
31911;BME280;18457;52.432;16.914;2022-07-23T09:14:41;100493.27;;;23.18;74.30
31911;BME280;18457;52.432;16.914;2022-07-23T09:17:15;100481.67;;;23.45;74.35
31911;BME280;18457;52.432;16.914;2022-07-23T09:19:47;100489.77;;;23.23;74.95
31911;BME280;18457;52.432;16.914;2022-07-23T09:22:21;100502.61;;;22.92;76.08
31911;BME280;18457;52.432;16.914;2022-07-23T09:25:10;100518.75;;;23.03;76.33
31911;BME280;18457;52.432;16.914;2022-07-23T09:27:58;100528.59;;;23.19;75.97
31911;BME280;18457;52.432;16.914;2022-07-23T09:30:33;100537.61;;;23.12;75.98
31911;BME280;18457;52.432;16.914;2022-07-23T09:33:07;100538.92;;;23.04;76.61
31911;BME280;18457;52.432;16.914;2022-07-23T09:35:48;100542.09;;;22.81;76.98
31911;BME280;18457;52.432;16.914;2022-07-23T09:38:23;100550.89;;;22.64;78.31
31911;BME280;18457;52.432;16.914;2022-07-23T09:41:08;100544.66;;;22.66;78.64
31911;BME280;18457;52.432;16.914;2022-07-23T09:43:41;100542.80;;;22.46;79.95
31911;BME280;18457;52.432;16.914;2022-07-23T09:46:20;100540.02;;;22.41;80.09
31911;BME280;18457;52.432;16.914;2022-07-23T09:48:54;100539.77;;;22.75;79.43
31911;BME280;18457;52.432;16.914;2022-07-23T09:51:28;100537.25;;;22.74;79.36
31911;BME280;18457;52.432;16.914;2022-07-23T09:54:06;100524.66;;;22.52;80.31
31911;BME280;18457;52.432;16.914;2022-07-23T09:56:52;100525.20;;;22.55;80.20
31911;BME280;18457;52.432;16.914;2022-07-23T09:59:27;100526.88;;;22.50;78.97
31911;BME280;18457;52.432;16.914;2022-07-23T10:02:00;100520.28;;;22.44;79.65
31911;BME280;18457;52.432;16.914;2022-07-23T10:04:33;100515.08;;;22.49;80.25
31911;BME280;18457;52.432;16.914;2022-07-23T10:07:27;100506.81;;;22.72;80.03
31911;BME280;18457;52.432;16.914;2022-07-23T10:10:36;100506.20;;;22.86;79.71
31911;BME280;18457;52.432;16.914;2022-07-23T10:13:16;100510.26;;;22.98;78.25
31911;BME280;18457;52.432;16.914;2022-07-23T10:16:08;100510.20;;;22.61;78.35
31911;BME280;18457;52.432;16.914;2022-07-23T10:18:41;100518.94;;;22.34;79.77
31911;BME280;18457;52.432;16.914;2022-07-23T10:21:20;100525.45;;;22.23;79.54
31911;BME280;18457;52.432;16.914;2022-07-23T10:24:18;100529.05;;;22.22;79.25
31911;BME280;18457;52.432;16.914;2022-07-23T10:27:02;100522.35;;;22.15;78.76
31911;BME280;18457;52.432;16.914;2022-07-23T10:29:45;100517.27;;;22.01;79.49
31911;BME280;18457;52.432;16.914;2022-07-23T10:32:30;100515.01;;;21.99;79.98
31911;BME280;18457;52.432;16.914;2022-07-23T10:35:15;100511.97;;;22.42;79.92
31911;BME280;18457;52.432;16.914;2022-07-23T10:37:53;100513.45;;;22.44;78.76
31911;BME280;18457;52.432;16.914;2022-07-23T10:40:28;100505.67;;;22.24;79.17
31911;BME280;18457;52.432;16.914;2022-07-23T10:43:03;100496.08;;;22.37;78.55
31911;BME280;18457;52.432;16.914;2022-07-23T10:45:51;100492.42;;;22.52;77.66
31911;BME280;18457;52.432;16.914;2022-07-23T10:48:26;100494.77;;;22.61;77.87
31911;BME280;18457;52.432;16.914;2022-07-23T10:51:13;100497.71;;;22.84;77.74
31911;BME280;18457;52.432;16.914;2022-07-23T10:53:58;100489.63;;;22.91;77.11
31911;BME280;18457;52.432;16.914;2022-07-23T10:57:06;100488.30;;;22.88;76.17
31911;BME280;18457;52.432;16.914;2022-07-23T11:02:49;100480.77;;;22.84;76.66
31911;BME280;18457;52.432;16.914;2022-07-23T11:05:24;100475.35;;;23.19;77.06
31911;BME280;18457;52.432;16.914;2022-07-23T11:08:17;100477.77;;;23.26;76.22
31911;BME280;18457;52.432;16.914;2022-07-23T11:10:54;100470.67;;;23.34;75.30
31911;BME280;18457;52.432;16.914;2022-07-23T11:13:35;100471.45;;;23.04;75.16
31911;BME280;18457;52.432;16.914;2022-07-23T11:16:14;100471.52;;;23.13;75.74
31911;BME280;18457;52.432;16.914;2022-07-23T11:19:06;100472.77;;;23.14;75.31
31911;BME280;18457;52.432;16.914;2022-07-23T11:21:49;100478.66;;;23.26;75.70
31911;BME280;18457;52.432;16.914;2022-07-23T11:24:52;100482.27;;;23.37;75.02
31911;BME280;18457;52.432;16.914;2022-07-23T11:27:39;100481.39;;;23.24;75.30
31911;BME280;18457;52.432;16.914;2022-07-23T11:33:20;100494.29;;;23.14;75.20
31911;BME280;18457;52.432;16.914;2022-07-23T11:36:04;100502.02;;;22.95;75.56
31911;BME280;18457;52.432;16.914;2022-07-23T11:38:39;100495.16;;;22.98;75.43
31911;BME280;18457;52.432;16.914;2022-07-23T11:41:11;100500.96;;;23.24;75.43
31911;BME280;18457;52.432;16.914;2022-07-23T11:43:43;100498.43;;;23.43;75.00
31911;BME280;18457;52.432;16.914;2022-07-23T11:46:15;100493.98;;;23.75;74.24
31911;BME280;18457;52.432;16.914;2022-07-23T11:48:46;100496.23;;;23.90;73.69
31911;BME280;18457;52.432;16.914;2022-07-23T11:51:33;100494.56;;;24.30;72.49
31911;BME280;18457;52.432;16.914;2022-07-23T11:54:08;100487.77;;;24.35;72.56
31911;BME280;18457;52.432;16.914;2022-07-23T11:56:56;100488.39;;;24.31;72.75
31911;BME280;18457;52.432;16.914;2022-07-23T11:59:32;100492.17;;;24.21;72.77
31911;BME280;18457;52.432;16.914;2022-07-23T12:02:06;100496.58;;;24.12;71.75
31911;BME280;18457;52.432;16.914;2022-07-23T12:04:45;100494.55;;;23.97;71.34
31911;BME280;18457;52.432;16.914;2022-07-23T12:07:34;100499.71;;;23.86;72.40
31911;BME280;18457;52.432;16.914;2022-07-23T12:10:11;100503.08;;;23.86;72.57
31911;BME280;18457;52.432;16.914;2022-07-23T12:12:45;100507.09;;;23.60;72.74
31911;BME280;18457;52.432;16.914;2022-07-23T12:15:21;100505.35;;;23.56;71.73
31911;BME280;18457;52.432;16.914;2022-07-23T12:17:54;100503.14;;;23.52;72.29
31911;BME280;18457;52.432;16.914;2022-07-23T12:20:28;100500.81;;;23.58;71.79
31911;BME280;18457;52.432;16.914;2022-07-23T12:23:02;100503.08;;;23.47;71.42
31911;BME280;18457;52.432;16.914;2022-07-23T12:25:37;100494.23;;;23.66;71.28
31911;BME280;18457;52.432;16.914;2022-07-23T12:28:11;100492.98;;;23.73;70.43
31911;BME280;18457;52.432;16.914;2022-07-23T12:30:45;100485.69;;;23.81;70.31
31911;BME280;18457;52.432;16.914;2022-07-23T12:33:27;100480.60;;;23.99;69.90
31911;BME280;18457;52.432;16.914;2022-07-23T12:36:00;100460.20;;;24.03;68.98
31911;BME280;18457;52.432;16.914;2022-07-23T12:38:39;100442.31;;;24.26;69.58
31911;BME280;18457;52.432;16.914;2022-07-23T12:41:13;100444.96;;;24.39;67.21
31911;BME280;18457;52.432;16.914;2022-07-23T12:43:47;100455.67;;;24.66;67.18
31911;BME280;18457;52.432;16.914;2022-07-23T12:46:20;100457.98;;;25.00;67.21
31911;BME280;18457;52.432;16.914;2022-07-23T12:48:55;100459.20;;;25.06;66.02
31911;BME280;18457;52.432;16.914;2022-07-23T12:51:30;100464.01;;;25.02;65.75
31911;BME280;18457;52.432;16.914;2022-07-23T12:54:07;100470.88;;;24.81;65.17
31911;BME280;18457;52.432;16.914;2022-07-23T12:56:44;100474.20;;;24.81;65.58
31911;BME280;18457;52.432;16.914;2022-07-23T12:59:18;100474.52;;;24.81;66.98
31911;BME280;18457;52.432;16.914;2022-07-23T13:01:54;100480.08;;;24.57;66.88
31911;BME280;18457;52.432;16.914;2022-07-23T13:04:29;100476.04;;;24.38;66.99
31911;BME280;18457;52.432;16.914;2022-07-23T13:07:02;100477.48;;;24.50;66.51
31911;BME280;18457;52.432;16.914;2022-07-23T13:09:35;100485.79;;;24.47;66.89
31911;BME280;18457;52.432;16.914;2022-07-23T13:12:12;100476.99;;;24.83;67.49
31911;BME280;18457;52.432;16.914;2022-07-23T13:14:44;100480.59;;;25.18;66.83
31911;BME280;18457;52.432;16.914;2022-07-23T13:17:16;100480.45;;;25.39;65.92
31911;BME280;18457;52.432;16.914;2022-07-23T13:19:50;100493.31;;;25.42;65.72
31911;BME280;18457;52.432;16.914;2022-07-23T13:22:22;100490.98;;;25.28;66.28
31911;BME280;18457;52.432;16.914;2022-07-23T13:24:53;100488.15;;;25.22;65.64